Time;durP1;ratioP1;P1;durP2;ratioP2;P2;SDS_P1;SDS_P2;PMS_P1;PMS_P2;Temp;Humidity;BMP_temperature;BMP_pressure;BME280_temperature;BME280_humidity;BME280_pressure;Samples;Min_cycle;Max_cycle;Signal;HPM_P1;HPM_P2
2020/12/24 00:02:25;;;;;;;0.00;0.00;;;10.60;81.50;;;;;;4095300;27;20089;-87
2020/12/24 00:04:51;;;;;;;0.00;0.00;;;10.60;81.60;;;;;;4095469;27;20508;-86
2020/12/24 00:07:18;;;;;;;4.15;0.10;;;10.50;81.60;;;;;;4118097;27;20090;-86
2020/12/24 00:09:45;;;;;;;0.52;0.20;;;10.50;81.70;;;;;;4079280;35;20071;-88
2020/12/24 00:12:14;;;;;;;2.05;0.00;;;10.50;81.80;;;;;;4104094;27;20082;-87
2020/12/24 00:14:41;;;;;;;0.65;0.20;;;10.50;82.00;;;;;;4101884;35;20083;-86
2020/12/24 00:17:08;;;;;;;0.00;0.00;;;10.50;82.00;;;;;;4106735;27;20110;-87
2020/12/24 00:19:34;;;;;;;0.00;0.00;;;10.50;82.10;;;;;;4110140;35;20082;-87
2020/12/24 00:22:01;;;;;;;0.00;0.00;;;10.50;82.10;;;;;;4101761;35;20036;-87
2020/12/24 00:24:27;;;;;;;0.00;0.00;;;10.50;82.10;;;;;;4104045;35;20078;-86
2020/12/24 00:26:53;;;;;;;0.10;0.00;;;10.50;82.20;;;;;;4101058;35;20067;-87
2020/12/24 00:29:20;;;;;;;0.00;0.00;;;10.50;82.20;;;;;;4106802;27;20451;-87
2020/12/24 00:31:46;;;;;;;0.00;0.00;;;10.50;82.20;;;;;;4094055;27;20083;-88
2020/12/24 00:34:19;;;;;;;0.00;0.00;;;10.50;82.30;;;;;;4101112;35;20086;-88
2020/12/24 00:36:46;;;;;;;7.57;0.20;;;10.50;82.30;;;;;;4101630;35;20083;-86
2020/12/24 00:39:12;;;;;;;0.00;0.00;;;10.50;82.30;;;;;;4094778;27;20079;-88
2020/12/24 00:41:38;;;;;;;0.00;0.00;;;10.50;82.30;;;;;;4101850;35;20079;-85
2020/12/24 00:44:05;;;;;;;0.00;0.00;;;10.40;82.30;;;;;;4090474;35;20097;-88
2020/12/24 00:46:31;;;;;;;0.00;0.00;;;10.40;82.40;;;;;;4094115;27;20451;-87
2020/12/24 00:48:57;;;;;;;0.10;0.10;;;10.40;82.40;;;;;;4083712;27;20079;-87
2020/12/24 00:51:24;;;;;;;0.00;0.00;;;10.40;82.50;;;;;;4119649;27;20083;-88
2020/12/24 00:53:50;;;;;;;0.00;0.00;;;10.40;82.60;;;;;;4097921;35;20502;-87
2020/12/24 00:56:16;;;;;;;4.68;0.20;;;10.40;82.60;;;;;;4101175;35;20447;-87
2020/12/24 00:58:43;;;;;;;0.00;0.00;;;10.40;82.60;;;;;;4107532;27;20121;-86
2020/12/24 01:01:09;;;;;;;0.00;0.00;;;10.40;82.60;;;;;;4091035;27;20079;-86
2020/12/24 01:03:35;;;;;;;0.00;0.00;;;10.50;82.70;;;;;;4103394;27;20087;-87
2020/12/24 01:06:02;;;;;;;0.10;0.05;;;10.50;82.70;;;;;;4106259;27;20086;-87
2020/12/24 01:08:28;;;;;;;0.30;0.28;;;10.50;82.70;;;;;;4091153;35;20075;-87
2020/12/24 01:10:55;;;;;;;0.75;0.20;;;10.50;82.70;;;;;;4102436;27;20072;-88
2020/12/24 01:13:21;;;;;;;0.00;0.00;;;10.50;82.70;;;;;;4084424;27;20076;-86
2020/12/24 01:15:47;;;;;;;0.00;0.00;;;10.50;82.70;;;;;;4090652;27;20079;-86
2020/12/24 01:18:14;;;;;;;0.00;0.00;;;10.50;82.70;;;;;;4126573;27;20086;-86
2020/12/24 01:20:40;;;;;;;0.00;0.00;;;10.50;82.70;;;;;;4116734;34;20161;-87
2020/12/24 01:23:06;;;;;;;0.20;0.05;;;10.50;82.80;;;;;;4127413;34;20090;-87
2020/12/24 01:25:33;;;;;;;0.00;0.00;;;10.50;82.90;;;;;;4134014;27;20082;-86
2020/12/24 01:27:59;;;;;;;0.00;0.00;;;10.50;82.90;;;;;;4105629;34;20477;-88
2020/12/24 01:30:26;;;;;;;0.00;0.00;;;10.50;83.00;;;;;;4128821;26;20081;-86
2020/12/24 01:32:53;;;;;;;0.15;0.10;;;10.50;83.10;;;;;;4108301;27;20097;-87
2020/12/24 01:35:20;;;;;;;0.00;0.00;;;10.50;83.20;;;;;;4132425;34;20112;-87
2020/12/24 01:37:46;;;;;;;0.00;0.00;;;10.40;83.20;;;;;;4123596;34;20427;-89
2020/12/24 01:40:13;;;;;;;0.00;0.00;;;10.40;83.30;;;;;;4120663;27;20070;-87
2020/12/24 01:42:39;;;;;;;0.00;0.00;;;10.40;83.50;;;;;;4111106;34;20062;-86
2020/12/24 01:45:06;;;;;;;0.00;0.00;;;10.40;83.60;;;;;;4109626;27;20098;-87
2020/12/24 01:47:32;;;;;;;0.00;0.00;;;10.40;83.70;;;;;;4114485;35;20083;-87
2020/12/24 01:49:58;;;;;;;1.08;0.15;;;10.40;83.90;;;;;;4114433;35;20089;-87
2020/12/24 01:52:31;;;;;;;0.00;0.00;;;10.30;84.00;;;;;;4115789;27;20082;-86
2020/12/24 01:54:57;;;;;;;0.00;0.00;;;10.30;84.20;;;;;;4120995;27;20376;-87
2020/12/24 01:57:24;;;;;;;0.10;0.10;;;10.30;84.30;;;;;;4114614;35;20086;-85
2020/12/24 01:59:50;;;;;;;0.00;0.00;;;10.30;84.50;;;;;;4114365;35;20086;-86
2020/12/24 02:02:16;;;;;;;0.00;0.00;;;10.20;84.40;;;;;;4115697;27;20499;-87
2020/12/24 02:04:43;;;;;;;0.00;0.00;;;10.20;84.60;;;;;;4121756;27;20075;-86
2020/12/24 02:07:09;;;;;;;0.00;0.00;;;10.20;84.80;;;;;;4120844;27;20067;-86
2020/12/24 02:09:35;;;;;;;0.00;0.00;;;10.20;84.80;;;;;;4114629;35;20074;-87
2020/12/24 02:12:03;;;;;;;0.00;0.00;;;10.20;84.90;;;;;;4114641;35;20423;-86
2020/12/24 02:14:29;;;;;;;0.00;0.00;;;10.20;85.00;;;;;;4120354;27;20082;-87
2020/12/24 02:16:55;;;;;;;0.00;0.00;;;10.20;85.00;;;;;;4115864;27;20114;-88
2020/12/24 02:19:22;;;;;;;0.00;0.00;;;10.20;85.10;;;;;;4109167;27;20086;-87
2020/12/24 02:21:48;;;;;;;0.00;0.00;;;10.20;85.20;;;;;;4103568;35;20078;-88
2020/12/24 02:24:14;;;;;;;0.00;0.00;;;10.20;85.20;;;;;;4115594;35;20093;-86
2020/12/24 02:26:41;;;;;;;0.00;0.00;;;10.20;85.20;;;;;;4118190;34;20032;-87
2020/12/24 02:29:07;;;;;;;0.00;0.00;;;10.20;85.20;;;;;;4125309;34;20055;-85
2020/12/24 02:31:33;;;;;;;4.38;0.38;;;10.20;85.30;;;;;;4116444;27;20117;-85
2020/12/24 02:34:00;;;;;;;0.00;0.00;;;10.20;85.30;;;;;;4103682;35;20105;-87
2020/12/24 02:36:26;;;;;;;0.00;0.00;;;10.20;85.20;;;;;;4116722;35;20048;-87
2020/12/24 02:38:53;;;;;;;0.00;0.00;;;10.30;85.30;;;;;;4127354;27;20058;-86
2020/12/24 02:41:19;;;;;;;0.00;0.00;;;10.30;85.30;;;;;;4110389;27;20095;-87
2020/12/24 02:43:47;;;;;;;0.00;0.00;;;10.30;85.20;;;;;;4104175;35;20087;-87
2020/12/24 02:46:13;;;;;;;0.00;0.00;;;10.30;85.20;;;;;;4148189;27;20094;-88
2020/12/24 02:48:40;;;;;;;0.00;0.00;;;10.30;85.20;;;;;;4124297;34;20133;-86
2020/12/24 02:51:08;;;;;;;0.00;0.00;;;10.40;85.20;;;;;;4125057;34;20058;-86
2020/12/24 02:53:34;;;;;;;0.00;0.00;;;10.40;85.20;;;;;;4103632;35;20516;-86
2020/12/24 02:56:01;;;;;;;0.00;0.00;;;10.40;85.10;;;;;;4116466;35;20082;-87
2020/12/24 02:58:27;;;;;;;0.00;0.00;;;10.50;85.10;;;;;;4118834;27;20079;-86
2020/12/24 03:00:53;;;;;;;0.00;0.00;;;10.50;85.10;;;;;;4103627;27;20062;-87
2020/12/24 03:03:20;;;;;;;0.00;0.00;;;10.50;85.10;;;;;;4119892;27;20443;-85
2020/12/24 03:05:47;;;;;;;0.00;0.00;;;10.50;85.10;;;;;;4113899;35;20078;-87
2020/12/24 03:08:13;;;;;;;0.00;0.00;;;10.50;85.10;;;;;;4114313;35;20081;-87
2020/12/24 03:10:40;;;;;;;0.00;0.00;;;10.60;85.20;;;;;;4116362;27;20392;-88
2020/12/24 03:13:06;;;;;;;0.00;0.00;;;10.60;85.30;;;;;;4114686;34;20083;-86
2020/12/24 03:15:32;;;;;;;0.00;0.00;;;10.60;85.20;;;;;;4108068;27;20078;-87
2020/12/24 03:17:59;;;;;;;0.00;0.00;;;10.60;85.20;;;;;;4114506;35;20372;-86
2020/12/24 03:20:25;;;;;;;2.28;0.22;;;10.70;85.20;;;;;;4118377;27;20098;-86
2020/12/24 03:22:51;;;;;;;2.90;1.20;;;10.70;85.20;;;;;;4114257;35;20446;-88
2020/12/24 03:25:18;;;;;;;0.00;0.00;;;10.70;85.20;;;;;;4115354;35;20090;-87
2020/12/24 03:27:44;;;;;;;0.00;0.00;;;10.70;85.20;;;;;;4118272;27;20466;-86
2020/12/24 03:30:11;;;;;;;2.20;0.25;;;10.70;85.20;;;;;;4114774;27;20547;-88
2020/12/24 03:32:37;;;;;;;0.00;0.00;;;10.70;85.30;;;;;;4119326;27;20077;-87
2020/12/24 03:35:04;;;;;;;0.00;0.00;;;10.70;85.40;;;;;;4115567;27;20098;-89
2020/12/24 03:37:31;;;;;;;0.00;0.00;;;10.70;85.40;;;;;;4117809;27;20091;-87
2020/12/24 03:39:57;;;;;;;0.00;0.00;;;10.70;85.50;;;;;;4104156;35;20524;-87
2020/12/24 03:42:24;;;;;;;0.08;0.08;;;10.60;85.60;;;;;;4114916;35;20094;-87
2020/12/24 03:44:50;;;;;;;0.00;0.00;;;10.70;85.70;;;;;;4119417;27;20423;-87
2020/12/24 03:47:16;;;;;;;0.00;0.00;;;10.60;85.70;;;;;;4115512;27;20067;-87
2020/12/24 03:49:43;;;;;;;0.00;0.00;;;10.60;85.80;;;;;;4103807;27;20075;-87
2020/12/24 03:52:09;;;;;;;0.00;0.00;;;10.60;85.80;;;;;;4107864;27;20090;-86
2020/12/24 03:54:35;;;;;;;0.00;0.00;;;10.60;85.90;;;;;;4116039;35;20075;-86
2020/12/24 03:57:02;;;;;;;0.00;0.00;;;10.60;86.00;;;;;;4114819;27;20098;-87
2020/12/24 03:59:28;;;;;;;0.00;0.00;;;10.50;86.00;;;;;;4117736;27;20700;-87
2020/12/24 04:01:55;;;;;;;0.00;0.00;;;10.60;86.20;;;;;;4103834;27;20083;-86
2020/12/24 04:04:21;;;;;;;0.00;0.00;;;10.50;86.20;;;;;;4121291;27;20079;-86
2020/12/24 04:06:47;;;;;;;0.00;0.00;;;10.50;86.40;;;;;;4115038;35;20162;-87
2020/12/24 04:09:13;;;;;;;0.20;0.10;;;10.50;86.40;;;;;;4115915;35;20352;-86
2020/12/24 04:11:40;;;;;;;0.00;0.00;;;10.50;86.50;;;;;;4120667;27;20533;-87
2020/12/24 04:14:06;;;;;;;0.00;0.00;;;10.40;86.50;;;;;;4108113;27;20071;-86
2020/12/24 04:16:32;;;;;;;0.70;0.20;;;10.40;86.60;;;;;;4104389;27;20474;-86
2020/12/24 04:18:59;;;;;;;0.00;0.00;;;10.40;86.70;;;;;;4114447;27;20071;-86
2020/12/24 04:21:25;;;;;;;0.00;0.00;;;10.40;86.80;;;;;;4119742;27;20083;-87
2020/12/24 04:23:51;;;;;;;0.00;0.00;;;10.40;86.90;;;;;;4114634;35;20463;-87
2020/12/24 04:26:22;;;;;;;0.00;0.00;;;10.30;86.90;;;;;;4115011;27;20102;-87
2020/12/24 04:28:48;;;;;;;0.00;0.00;;;10.40;87.00;;;;;;4116768;34;20058;-88
2020/12/24 04:31:15;;;;;;;0.00;0.00;;;10.30;87.00;;;;;;4123280;27;20070;-87
2020/12/24 04:33:42;;;;;;;0.00;0.00;;;10.30;87.10;;;;;;4131918;34;20095;-85
2020/12/24 04:36:08;;;;;;;0.00;0.00;;;10.30;87.10;;;;;;4126136;27;20079;-86
2020/12/24 04:38:34;;;;;;;8.48;0.30;;;10.30;87.10;;;;;;4116082;35;20091;-87
2020/12/24 04:41:01;;;;;;;0.00;0.00;;;10.30;87.10;;;;;;4115302;35;20141;-86
2020/12/24 04:43:28;;;;;;;0.05;0.05;;;10.30;87.20;;;;;;4116811;35;20090;-86
2020/12/24 04:45:54;;;;;;;0.00;0.00;;;10.20;87.20;;;;;;4120822;27;20446;-86
2020/12/24 04:48:21;;;;;;;0.00;0.00;;;10.20;87.20;;;;;;4115988;35;20652;-85
2020/12/24 04:50:49;;;;;;;0.00;0.00;;;10.20;87.30;;;;;;4124866;34;20079;-85
2020/12/24 04:53:16;;;;;;;0.00;0.00;;;10.20;87.30;;;;;;4277101;27;20079;-84
2020/12/24 04:55:42;;;;;;;0.00;0.00;;;10.20;87.40;;;;;;4252544;27;20074;-85
2020/12/24 04:58:11;;;;;;;0.00;0.00;;;10.10;87.50;;;;;;4211431;27;20042;-84
2020/12/24 05:00:39;;;;;;;0.00;0.00;;;10.10;87.60;;;;;;4122999;27;20071;-85
2020/12/24 05:03:10;;;;;;;0.00;0.00;;;10.10;87.70;;;;;;4134277;27;20050;-85
2020/12/24 05:05:37;;;;;;;0.00;0.00;;;10.00;87.70;;;;;;4128669;34;20039;-85
2020/12/24 05:08:05;;;;;;;0.00;0.00;;;10.00;87.80;;;;;;4129684;34;20061;-85
2020/12/24 05:10:32;;;;;;;0.00;0.00;;;10.00;87.80;;;;;;4140002;27;20086;-85
2020/12/24 05:12:58;;;;;;;6.72;0.30;;;10.00;87.80;;;;;;4117706;34;20093;-85
2020/12/24 05:15:29;;;;;;;0.00;0.00;;;10.00;87.80;;;;;;4102370;27;20087;-85
2020/12/24 05:18:15;;;;;;;0.00;0.00;;;10.00;87.70;;;;;;4119293;27;20078;-85
2020/12/24 05:20:42;;;;;;;0.00;0.00;;;10.00;87.80;;;;;;4113506;35;20087;-83
2020/12/24 05:23:19;;;;;;;0.55;0.10;;;10.00;87.80;;;;;;4113406;35;20079;-84
2020/12/24 05:25:46;;;;;;;0.00;0.00;;;10.00;87.80;;;;;;4118588;27;20079;-84
2020/12/24 05:28:26;;;;;;;0.00;0.00;;;10.00;87.80;;;;;;4112997;35;20078;-84
2020/12/24 05:30:52;;;;;;;0.00;0.00;;;10.00;87.80;;;;;;4113330;27;20458;-85
2020/12/24 05:33:25;;;;;;;0.00;0.00;;;9.90;87.80;;;;;;4117352;27;20078;-86
2020/12/24 05:35:52;;;;;;;0.00;0.00;;;10.00;87.90;;;;;;4124476;34;20079;-85
2020/12/24 05:38:32;;;;;;;0.28;0.10;;;10.00;87.90;;;;;;4113013;35;20069;-85
2020/12/24 05:40:59;;;;;;;0.00;0.00;;;10.00;87.90;;;;;;4108832;27;20090;-84
2020/12/24 05:43:25;;;;;;;0.00;0.00;;;10.00;87.80;;;;;;4117769;27;20087;-84
2020/12/24 05:46:02;;;;;;;0.00;0.00;;;10.00;87.80;;;;;;4114936;27;20083;-85
2020/12/24 05:48:32;;;;;;;0.00;0.00;;;10.00;88.70;;;;;;4119519;27;20078;-83
2020/12/24 05:50:58;;;;;;;0.13;0.00;;;10.00;87.80;;;;;;4118712;27;20075;-85
2020/12/24 05:53:25;;;;;;;2.17;0.22;;;10.00;87.80;;;;;;4113434;35;20086;-84
2020/12/24 05:57:58;;;;;;;0.00;0.00;;;10.00;87.80;;;;;;5090808;28;20352;-85
2020/12/24 06:00:34;;;;;;;0.00;0.00;;;10.00;87.80;;;;;;5081235;28;20045;-86
2020/12/24 06:03:09;;;;;;;0.00;0.00;;;10.00;87.80;;;;;;5031031;28;20036;-86
2020/12/24 06:05:56;;;;;;;0.00;0.00;;;10.00;87.70;;;;;;5014173;28;20041;-85
2020/12/24 06:08:26;;;;;;;0.03;0.00;;;10.00;87.70;;;;;;5028144;28;20449;-87
2020/12/24 06:11:07;;;;;;;0.55;0.10;;;10.00;87.70;;;;;;5028464;28;20030;-87
2020/12/24 06:13:35;;;;;;;0.00;0.00;;;10.00;87.70;;;;;;5014361;28;20048;-86
2020/12/24 06:16:03;;;;;;;0.00;0.00;;;10.00;87.60;;;;;;5015343;28;20424;-85
2020/12/24 06:18:37;;;;;;;1.08;0.20;;;10.10;87.70;;;;;;5025488;28;20044;-85
2020/12/24 06:21:08;;;;;;;0.00;0.00;;;10.10;87.60;;;;;;5029846;28;20033;-85
2020/12/24 06:23:35;;;;;;;0.00;0.00;;;10.10;87.60;;;;;;5012199;28;20034;-86
2020/12/24 06:26:03;;;;;;;0.00;0.00;;;10.10;87.50;;;;;;5029860;28;20026;-85
2020/12/24 06:28:30;;;;;;;0.00;0.00;;;10.10;87.60;;;;;;5012978;28;20045;-85
2020/12/24 06:30:57;;;;;;;0.00;0.00;;;10.10;87.50;;;;;;5013176;28;20029;-85
2020/12/24 06:33:28;;;;;;;1.10;0.10;;;10.10;87.50;;;;;;5012227;28;20281;-85
2020/12/24 06:36:00;;;;;;;0.00;0.00;;;10.10;87.50;;;;;;5011109;28;20030;-85
2020/12/24 06:38:52;;;;;;;0.10;0.05;;;10.10;87.60;;;;;;5023748;28;20025;-85
2020/12/24 06:41:38;;;;;;;0.00;0.00;;;10.10;87.60;;;;;;5026441;28;20353;-85
2020/12/24 06:44:11;;;;;;;0.00;0.00;;;10.10;87.60;;;;;;5036472;28;20033;-85
2020/12/24 06:46:56;;;;;;;0.17;0.17;;;10.10;87.60;;;;;;5011241;28;20029;-88
2020/12/24 06:49:30;;;;;;;0.00;0.00;;;10.10;87.60;;;;;;5029254;28;20420;-85
2020/12/24 06:51:56;;;;;;;0.13;0.13;;;10.10;87.60;;;;;;4997262;28;20179;-86
2020/12/24 06:54:26;;;;;;;0.00;0.00;;;10.10;87.70;;;;;;5022997;28;20036;-86
2020/12/24 06:57:21;;;;;;;0.00;0.00;;;10.10;87.60;;;;;;5028670;28;20050;-85
2020/12/24 07:00:17;;;;;;;0.00;0.00;;;10.10;87.70;;;;;;5026838;28;20032;-85
2020/12/24 07:02:47;;;;;;;0.00;0.00;;;10.10;87.60;;;;;;5012532;28;20037;-85
2020/12/24 07:05:42;;;;;;;0.00;0.00;;;10.10;87.70;;;;;;5021896;28;20048;-85
2020/12/24 07:08:10;;;;;;;0.00;0.00;;;10.10;87.70;;;;;;5004459;28;20022;-85
2020/12/24 07:10:47;;;;;;;0.00;0.00;;;10.10;87.70;;;;;;4999366;28;20026;-85
2020/12/24 07:13:32;;;;;;;0.08;0.00;;;10.10;87.70;;;;;;4977165;28;20042;-85
2020/12/24 07:15:58;;;;;;;0.00;0.00;;;10.20;87.50;;;;;;4977750;28;20030;-85
2020/12/24 07:18:27;;;;;;;0.00;0.00;;;10.20;87.50;;;;;;4978951;28;20045;-85
2020/12/24 07:20:54;;;;;;;0.00;0.00;;;10.20;87.60;;;;;;4997761;28;20033;-85
2020/12/24 07:23:30;;;;;;;1.08;0.22;;;10.20;87.60;;;;;;4983976;28;20061;-87
2020/12/24 07:26:04;;;;;;;0.00;0.00;;;10.20;87.70;;;;;;4997625;28;20041;-86
2020/12/24 07:28:32;;;;;;;0.00;0.00;;;10.10;87.60;;;;;;4997634;28;20034;-85
2020/12/24 07:31:04;;;;;;;0.00;0.00;;;10.10;87.70;;;;;;4996285;28;20034;-84
2020/12/24 07:33:30;;;;;;;0.00;0.00;;;10.10;87.70;;;;;;4990265;28;20038;-85
2020/12/24 07:35:57;;;;;;;0.00;0.00;;;10.10;87.80;;;;;;4986157;28;20034;-84
2020/12/24 07:38:25;;;;;;;0.00;0.00;;;10.10;87.80;;;;;;4976655;28;20027;-84
2020/12/24 07:40:51;;;;;;;0.00;0.00;;;10.10;87.80;;;;;;4983247;28;20050;-83
2020/12/24 07:43:17;;;;;;;0.00;0.00;;;10.00;87.80;;;;;;4993175;28;20027;-86
2020/12/24 07:45:44;;;;;;;0.00;0.00;;;10.00;87.80;;;;;;4987628;28;20034;-85
2020/12/24 07:48:23;;;;;;;0.00;0.00;;;10.00;87.90;;;;;;4978236;28;20031;-85
2020/12/24 07:50:51;;;;;;;0.08;0.03;;;10.10;87.90;;;;;;4974410;28;20039;-84
2020/12/24 07:53:18;;;;;;;0.45;0.45;;;10.00;87.80;;;;;;4989376;28;20034;-84
2020/12/24 07:55:45;;;;;;;0.10;0.10;;;10.10;87.90;;;;;;4980805;28;20067;-87
2020/12/24 07:58:12;;;;;;;0.28;0.05;;;10.10;87.80;;;;;;4979021;28;20042;-84
2020/12/24 08:00:44;;;;;;;0.00;0.00;;;10.10;87.70;;;;;;4993620;28;20023;-84
2020/12/24 08:03:13;;;;;;;0.00;0.00;;;10.00;87.70;;;;;;4977870;28;20027;-84
2020/12/24 08:05:40;;;;;;;0.00;0.00;;;10.10;87.80;;;;;;4992982;28;20042;-87
2020/12/24 08:08:06;;;;;;;0.00;0.00;;;10.00;87.80;;;;;;4988677;28;20432;-84
2020/12/24 08:10:43;;;;;;;0.10;0.00;;;10.00;87.80;;;;;;4977807;28;20338;-86
2020/12/24 08:13:10;;;;;;;0.00;0.00;;;10.10;87.90;;;;;;4975340;28;20409;-87
2020/12/24 08:15:44;;;;;;;0.00;0.00;;;10.10;87.80;;;;;;4976161;28;20031;-85
2020/12/24 08:18:11;;;;;;;0.00;0.00;;;10.00;87.70;;;;;;4975108;28;20050;-86
2020/12/24 08:20:48;;;;;;;0.00;0.00;;;10.10;87.80;;;;;;4957923;28;20031;-85
2020/12/24 08:23:49;;;;;;;0.00;0.00;;;10.10;87.70;;;;;;4987552;28;20027;-84
2020/12/24 08:26:16;;;;;;;0.00;0.00;;;10.10;87.60;;;;;;4991587;28;20061;-85
2020/12/24 08:28:49;;;;;;;0.22;0.00;;;10.10;87.60;;;;;;4985037;28;20034;-85
2020/12/24 08:31:15;;;;;;;0.28;0.03;;;10.10;87.60;;;;;;4989782;28;20047;-85
2020/12/24 08:33:42;;;;;;;0.32;0.20;;;10.10;87.60;;;;;;4986977;28;20038;-84
2020/12/24 08:36:15;;;;;;;0.00;0.00;;;10.10;87.60;;;;;;4990215;28;20710;-85
2020/12/24 08:38:41;;;;;;;0.30;0.10;;;10.10;87.70;;;;;;4975058;28;20039;-84
2020/12/24 08:41:17;;;;;;;0.08;0.00;;;10.10;87.70;;;;;;4976483;28;20029;-84
2020/12/24 08:43:52;;;;;;;0.00;0.00;;;10.00;87.70;;;;;;4994392;28;20019;-84
2020/12/24 08:46:18;;;;;;;0.22;0.00;;;10.10;87.70;;;;;;4987036;28;20038;-85
2020/12/24 08:48:44;;;;;;;0.00;0.00;;;10.10;87.80;;;;;;4978780;28;20023;-85
2020/12/24 08:51:15;;;;;;;0.80;0.20;;;10.00;87.80;;;;;;4971116;28;20039;-85
2020/12/24 08:53:41;;;;;;;0.00;0.00;;;10.00;87.80;;;;;;4980387;28;20027;-85
2020/12/24 08:56:12;;;;;;;0.00;0.00;;;9.90;87.80;;;;;;4971007;28;20449;-85
2020/12/24 08:58:51;;;;;;;0.00;0.00;;;9.90;87.80;;;;;;4972208;28;20038;-84
2020/12/24 09:01:18;;;;;;;0.00;0.00;;;9.90;87.80;;;;;;4979015;28;20414;-85
2020/12/24 09:03:45;;;;;;;0.00;0.00;;;9.90;87.80;;;;;;4995025;28;20030;-89
2020/12/24 09:06:13;;;;;;;0.00;0.00;;;9.90;87.70;;;;;;4994881;28;20026;-91
2020/12/24 09:08:40;;;;;;;0.15;0.10;;;9.90;87.80;;;;;;4978563;28;20329;-85
2020/12/24 09:11:39;;;;;;;0.00;0.00;;;9.90;87.80;;;;;;4994679;28;20034;-85
2020/12/24 09:14:07;;;;;;;0.00;0.00;;;9.90;87.70;;;;;;4973350;28;20341;-85
2020/12/24 09:16:34;;;;;;;0.43;0.43;;;9.90;87.70;;;;;;4974472;28;20035;-86
2020/12/24 09:19:05;;;;;;;0.00;0.00;;;9.90;87.70;;;;;;4994112;28;20027;-84
2020/12/24 09:21:32;;;;;;;0.00;0.00;;;9.90;87.70;;;;;;4991141;28;20014;-86
2020/12/24 09:24:08;;;;;;;0.00;0.00;;;9.90;87.70;;;;;;4978183;28;20026;-88
2020/12/24 09:27:00;;;;;;;0.00;0.00;;;9.90;87.70;;;;;;4960235;28;20041;-89
2020/12/24 09:29:27;;;;;;;0.50;0.38;;;9.90;87.70;;;;;;4988260;28;20342;-85
2020/12/24 09:32:00;;;;;;;0.00;0.00;;;9.90;87.70;;;;;;4980783;28;20048;-94
2020/12/24 09:34:29;;;;;;;0.10;0.10;;;9.90;87.60;;;;;;4977996;28;20030;-84
2020/12/24 09:36:56;;;;;;;0.75;0.17;;;9.90;87.60;;;;;;4973812;28;20030;-85
2020/12/24 09:39:22;;;;;;;0.25;0.25;;;9.90;87.50;;;;;;4974257;28;20445;-85
2020/12/24 09:41:49;;;;;;;0.00;0.00;;;9.90;87.40;;;;;;4989235;28;20026;-85
2020/12/24 09:44:15;;;;;;;0.00;0.00;;;9.90;87.30;;;;;;4994912;28;20030;-88
2020/12/24 09:46:42;;;;;;;0.20;0.05;;;9.90;87.30;;;;;;4993904;28;20034;-84
2020/12/24 09:49:08;;;;;;;0.20;0.00;;;9.90;87.20;;;;;;4994031;28;20030;-84
2020/12/24 09:51:38;;;;;;;2.72;0.20;;;9.90;87.20;;;;;;4994657;28;20031;-91
2020/12/24 09:54:04;;;;;;;0.00;0.00;;;9.80;87.20;;;;;;4963412;28;20042;-84
2020/12/24 09:56:31;;;;;;;0.00;0.00;;;9.80;87.20;;;;;;4963466;28;20053;-89
2020/12/24 09:58:57;;;;;;;0.00;0.00;;;9.80;87.30;;;;;;4994631;28;20034;-84
2020/12/24 10:01:24;;;;;;;0.00;0.00;;;9.70;88.20;;;;;;4993298;28;20030;-92
2020/12/24 10:03:50;;;;;;;0.93;0.50;;;9.70;87.50;;;;;;4994255;28;20042;-85
2020/12/24 10:06:16;;;;;;;0.00;0.00;;;9.60;87.50;;;;;;4994568;28;20034;-84
2020/12/24 10:08:43;;;;;;;0.80;0.25;;;9.60;87.50;;;;;;4977243;28;20038;-93
2020/12/24 10:11:13;;;;;;;0.08;0.00;;;9.60;87.50;;;;;;4994835;28;20069;-84
2020/12/24 10:13:39;;;;;;;0.00;0.00;;;9.60;87.60;;;;;;4980536;28;20038;-92
2020/12/24 10:16:05;;;;;;;0.00;0.00;;;9.60;87.60;;;;;;4976840;28;20341;-91
2020/12/24 10:18:40;;;;;;;0.00;0.00;;;9.50;87.50;;;;;;4993174;28;20333;-85
2020/12/24 10:21:09;;;;;;;0.00;0.00;;;9.50;87.70;;;;;;4975824;28;20473;-89
2020/12/24 10:23:35;;;;;;;0.00;0.00;;;9.40;87.80;;;;;;4993717;28;20034;-91
2020/12/24 10:26:02;;;;;;;0.00;0.00;;;9.30;88.00;;;;;;4993588;28;20038;-85
2020/12/24 10:28:28;;;;;;;0.00;0.00;;;9.30;88.00;;;;;;4992370;28;20034;-85
2020/12/24 10:30:54;;;;;;;0.85;0.10;;;9.30;88.10;;;;;;4991529;28;20429;-91
2020/12/24 10:33:21;;;;;;;0.47;0.10;;;9.30;88.10;;;;;;4991840;28;20042;-84
2020/12/24 10:35:47;;;;;;;0.40;0.10;;;9.30;88.20;;;;;;4975195;28;20042;-87
2020/12/24 10:38:18;;;;;;;0.47;0.10;;;9.30;88.20;;;;;;4975669;28;20038;-86
2020/12/24 10:40:45;;;;;;;0.00;0.00;;;9.30;88.10;;;;;;4990866;28;20035;-86
2020/12/24 10:43:11;;;;;;;0.63;0.17;;;9.30;88.10;;;;;;4993691;28;20061;-85
2020/12/24 10:45:37;;;;;;;0.08;0.00;;;9.40;88.10;;;;;;4978868;28;20034;-86
2020/12/24 10:48:06;;;;;;;0.57;0.00;;;9.50;88.00;;;;;;4996222;28;20026;-86
2020/12/24 10:50:35;;;;;;;0.20;0.00;;;9.50;87.90;;;;;;4975583;28;20429;-92
2020/12/24 10:53:02;;;;;;;0.15;0.13;;;9.50;87.70;;;;;;4997157;28;20037;-85
2020/12/24 10:55:28;;;;;;;0.00;0.00;;;9.50;87.70;;;;;;4980403;28;20042;-92
2020/12/24 10:57:55;;;;;;;0.00;0.00;;;9.60;87.60;;;;;;4993406;28;20042;-87
2020/12/24 11:00:21;;;;;;;0.70;0.08;;;9.60;87.60;;;;;;4993415;28;20031;-86
2020/12/24 11:02:47;;;;;;;0.00;0.00;;;9.60;87.60;;;;;;4975314;28;20422;-90
2020/12/24 11:05:25;;;;;;;0.00;0.00;;;9.60;87.40;;;;;;4976873;28;20034;-93
2020/12/24 11:07:55;;;;;;;0.00;0.00;;;9.60;87.50;;;;;;4994519;28;20027;-84
2020/12/24 11:10:21;;;;;;;0.00;0.00;;;9.60;87.40;;;;;;4996913;28;20038;-85
2020/12/24 11:12:47;;;;;;;0.20;0.00;;;9.60;87.30;;;;;;4997005;28;20349;-94
2020/12/24 11:15:23;;;;;;;0.52;0.20;;;9.70;87.30;;;;;;4996593;28;20345;-95
2020/12/24 11:17:49;;;;;;;0.00;0.00;;;9.70;87.20;;;;;;4981245;28;20034;-89
2020/12/24 11:20:25;;;;;;;0.00;0.00;;;9.70;87.10;;;;;;4995704;28;20031;-85
2020/12/24 11:22:51;;;;;;;0.32;0.17;;;9.70;87.00;;;;;;4981037;28;20038;-91
2020/12/24 11:25:17;;;;;;;1.38;0.20;;;9.70;87.10;;;;;;4997409;28;20053;-89
2020/12/24 11:27:44;;;;;;;0.28;0.10;;;9.70;86.90;;;;;;4999000;28;20030;-87
2020/12/24 11:30:10;;;;;;;1.30;0.85;;;9.80;86.90;;;;;;4998187;28;20042;-92
2020/12/24 11:32:36;;;;;;;0.00;0.00;;;9.80;86.90;;;;;;4996489;28;20022;-86
2020/12/24 11:35:06;;;;;;;1.45;0.20;;;9.80;86.80;;;;;;5008519;28;20033;-85
2020/12/24 11:37:32;;;;;;;0.00;0.00;;;9.80;86.80;;;;;;5000203;28;20042;-92
2020/12/24 11:40:01;;;;;;;1.30;0.32;;;9.80;86.70;;;;;;5004159;28;20026;-94
2020/12/24 11:42:30;;;;;;;0.47;0.20;;;9.80;86.70;;;;;;5000396;28;20063;-87
2020/12/24 11:44:56;;;;;;;0.47;0.03;;;9.80;86.70;;;;;;4997181;28;20019;-86
2020/12/24 11:47:23;;;;;;;0.03;0.00;;;9.90;86.60;;;;;;4971244;28;20042;-88
2020/12/24 11:49:49;;;;;;;1.55;0.73;;;9.90;86.60;;;;;;4989558;28;20038;-88
2020/12/24 11:52:15;;;;;;;0.00;0.00;;;9.90;86.40;;;;;;4963467;28;20310;-89
2020/12/24 11:54:42;;;;;;;0.00;0.00;;;9.80;86.30;;;;;;4987778;28;20041;-84
2020/12/24 11:57:08;;;;;;;0.00;0.00;;;9.80;86.40;;;;;;4981362;28;20046;-85
2020/12/24 11:59:35;;;;;;;0.00;0.00;;;9.80;86.40;;;;;;4992817;28;20029;-85
2020/12/24 12:02:01;;;;;;;0.10;0.00;;;9.80;86.40;;;;;;4980704;28;20031;-89
2020/12/24 12:04:28;;;;;;;0.00;0.00;;;9.80;86.40;;;;;;4992222;28;20022;-84
2020/12/24 12:06:54;;;;;;;0.00;0.00;;;9.80;86.30;;;;;;4988585;28;20365;-85
2020/12/24 12:09:21;;;;;;;0.00;0.00;;;9.70;86.30;;;;;;4997043;28;20038;-85
2020/12/24 12:11:47;;;;;;;0.98;0.63;;;9.70;86.40;;;;;;4997318;28;20299;-85
2020/12/24 12:14:13;;;;;;;0.00;0.00;;;9.70;86.20;;;;;;5005296;28;20034;-85
2020/12/24 12:16:47;;;;;;;4.22;0.10;;;9.70;85.90;;;;;;4996139;28;20038;-85
2020/12/24 12:19:16;;;;;;;0.00;0.00;;;9.70;85.90;;;;;;5001079;28;20030;-94
2020/12/24 12:21:42;;;;;;;0.00;0.00;;;9.70;85.90;;;;;;4989516;28;20037;-86
2020/12/24 12:24:08;;;;;;;0.00;0.00;;;9.80;85.90;;;;;;4988626;28;20053;-85
2020/12/24 12:26:35;;;;;;;0.00;0.00;;;9.80;85.70;;;;;;4981799;28;20453;-86
2020/12/24 12:29:01;;;;;;;0.20;0.17;;;9.80;85.30;;;;;;4973481;28;20050;-85
2020/12/24 12:31:27;;;;;;;0.00;0.00;;;9.80;85.40;;;;;;4990731;28;20294;-85
2020/12/24 12:34:03;;;;;;;0.00;0.00;;;9.80;85.40;;;;;;4962264;28;20381;-85
2020/12/24 12:36:29;;;;;;;0.15;0.13;;;9.90;85.40;;;;;;4982532;28;20038;-86
2020/12/24 12:38:59;;;;;;;0.00;0.00;;;9.90;85.40;;;;;;4992839;28;20445;-84
2020/12/24 12:41:25;;;;;;;0.15;0.13;;;9.90;85.40;;;;;;4978563;28;20329;-84
2020/12/24 12:43:51;;;;;;;0.00;0.00;;;9.80;85.30;;;;;;4994516;28;20050;-84
2020/12/24 12:46:25;;;;;;;0.00;0.00;;;9.80;85.30;;;;;;4968287;28;20041;-84
2020/12/24 12:48:53;;;;;;;0.00;0.00;;;9.80;85.40;;;;;;4995045;28;20026;-85
2020/12/24 12:51:25;;;;;;;0.00;0.00;;;9.70;85.30;;;;;;5014335;28;20029;-84
2020/12/24 12:53:51;;;;;;;0.00;0.00;;;9.70;85.40;;;;;;5008585;28;20037;-84
2020/12/24 12:56:22;;;;;;;0.00;0.00;;;9.70;85.30;;;;;;4993641;28;20054;-84
2020/12/24 12:58:50;;;;;;;0.38;0.10;;;9.70;85.20;;;;;;4992961;28;20042;-83
2020/12/24 13:01:22;;;;;;;0.00;0.00;;;9.70;85.00;;;;;;5007697;28;20049;-84